• Join FlightAware (Why Join?)
  • Login
  • US Flag 
11:37AM EDT


 

Airport Tracker/Info


-or-


 

Live Flight TrackerFlight Track Log ✈ ASA525 ✈ 24-Apr-2013 ✈ KBUR - KSEA

Flight Track Log - Related Links

Times and Time Zones

All times are in EDT time to prevent confusion due to time zone crossing. See the ASA525 flight status page for this flight to view local times or setup timezone preferences in your user account.

Time Position Orientation Groundspeed Altitude Reporting Facility
EDT Latitude Longitude Course Direction KTS MPH feet Rate Location/Type
02:04PM 34.1725 -118.3661 247° West 167 192 2,200  Level Los Angeles Center
02:05PM 34.1514 -118.4272 247° West 232 267 4,400 2,160 Climbing Los Angeles Center
02:06PM 34.2147 -118.4686 332° Northwest 270 311 6,700 2,880 Climbing Los Angeles Center
02:07PM 34.3028 -118.5242 332° Northwest 300 345 10,400 2,880 Climbing Los Angeles Center
02:08PM 34.3808 -118.5772 331° Northwest 321 369 12,700 1,800 Climbing Los Angeles Center
02:09PM 34.4664 -118.6325 332° Northwest 354 407 14,200 1,500 Climbing Los Angeles Center
02:10PM 34.5619 -118.6969 331° Northwest 395 455 15,900 1,980 Climbing Los Angeles Center
02:11PM 34.6625 -118.7678 330° Northwest 418 481 18,300 3,240 Climbing Los Angeles Center
02:12PM 34.7842 -118.8500 331° Northwest 416 479 22,600 3,120 Climbing Los Angeles Center
02:13PM 34.8936 -118.8969 341° North 416 479 24,800 1,860 Climbing Los Angeles Center
02:14PM 35.0114 -118.9436 342° North 425 489 26,500 1,800 Climbing Los Angeles Center
02:15PM 35.1247 -118.9856 343° North 427 491 28,600 1,560 Climbing Los Angeles Center
02:16PM 35.2486 -119.0006 354° North 454 522 29,800 660 Climbing Los Angeles Center
02:17PM 35.3744 -118.9967 North 455 524 30,000 540 Climbing Los Angeles Center
02:18PM 35.4983 -119.0058 357° North 456 525 31,000 1,740 Climbing Los Angeles Center
02:19PM 35.6450 -119.0447 348° North 448 516 33,600 2,100 Climbing Los Angeles Center
02:20PM 35.7675 -119.0764 348° North 450 518 35,400 1,740 Climbing Los Angeles Center
02:21PM 35.8881 -119.1069 348° North 445 512 37,200 1,200 Climbing Los Angeles Center
02:22PM 36.0036 -119.1489 344° North 437 503 38,000 360 Climbing Los Angeles Center
02:23PM 36.1469 -119.1906 347° North 440 506 38,000  Level Oakland Center
02:25PM 36.2617 -119.2267 346° North 428 493 38,000  Level Oakland Center
02:26PM 36.3781 -119.2608 347° North 432 497 38,000  Level Oakland Center
02:27PM 36.4922 -119.2997 345° North 429 494 38,000  Level Oakland Center
02:28PM 36.6314 -119.3400 347° North 430 495 38,000  Level Oakland Center
02:29PM 36.7464 -119.3797 345° North 431 496 38,000  Level Oakland Center
02:30PM 36.8622 -119.4156 346° North 432 497 38,000  Level Oakland Center
02:31PM 36.9767 -119.4547 345° North 429 494 38,000  Level Oakland Center
02:32PM 37.0911 -119.4908 346° North 437 503 38,000  Level Oakland Center
02:33PM 37.2053 -119.5258 346° North 424 488 38,000  Level Oakland Center
02:34PM 37.3203 -119.5628 346° North 431 496 38,000  Level Oakland Center
02:35PM 37.4425 -119.6017 346° North 423 487 38,000  Level Oakland Center
02:36PM 37.5597 -119.6339 348° North 434 499 38,000  Level Oakland Center
02:37PM 37.6694 -119.6708 345° North 414 476 38,000  Level Oakland Center
02:38PM 37.7811 -119.7064 346° North 414 476 38,000  Level Oakland Center
02:39PM 37.9169 -119.7506 346° North 419 482 38,000  Level Oakland Center
02:40PM 38.0297 -119.7856 346° North 418 481 38,000  Level Oakland Center
02:41PM 38.1403 -119.8219 345° North 415 478 38,000  Level Oakland Center
02:42PM 38.2494 -119.8589 345° North 409 471 38,000  Level Oakland Center
02:43PM 38.3608 -119.8950 346° North 412 474 38,000  Level Oakland Center
02:44PM 38.4744 -119.9311 346° North 418 481 38,000  Level Oakland Center
02:45PM 38.5875 -119.9675 346° North 420 483 38,000  Level Oakland Center
02:46PM 38.7003 -120.0058 345° North 420 483 38,000  Level Oakland Center
02:47PM 38.8336 -120.0506 345° North 416 479 38,000  Level Oakland Center
02:48PM 38.9453 -120.0858 346° North 414 476 38,000  Level Oakland Center
02:49PM 39.0444 -120.1200 345° North 412 474 38,000  Level Oakland Center
02:50PM 39.1647 -120.1597 346° North 411 473 38,000  Level Oakland Center
02:51PM 39.2747 -120.1956 346° North 409 471 38,000  Level Oakland Center
02:52PM 39.3819 -120.2317 345° North 403 464 38,000  Level Oakland Center
02:53PM 39.4900 -120.2678 346° North 402 463 38,000  Level Oakland Center
02:54PM 39.5981 -120.3047 345° North 402 463 38,000  Level Oakland Center
02:55PM 39.7286 -120.3489 345° North 404 465 38,000  Level Oakland Center
02:56PM 39.8394 -120.3864 345° North 410 472 38,000  Level Oakland Center
02:57PM 39.9489 -120.4225 346° North 408 470 38,000  Level Oakland Center
02:58PM 40.0522 -120.4592 345° North 406 467 38,000  Level Oakland Center
02:59PM 40.1619 -120.4956 346° North 405 466 38,000  Level Oakland Center
03:00PM 40.2692 -120.5336 345° North 401 461 38,000  Level Oakland Center
03:01PM 40.3839 -120.5744 345° North 405 466 38,000  Level Oakland Center
03:03PM 40.5219 -120.6175 347° North 403 464 38,000  Level Seattle Center
03:03PM 40.6058 -120.6511 343° North 398 458 38,000  Level Oakland Center
03:04PM 40.7150 -120.6892 345° North 405 466 38,000  Level Oakland Center
03:05PM 40.8236 -120.7269 345° North 406 467 38,000  Level Oakland Center
03:06PM 40.9319 -120.7653 345° North 402 463 38,000  Level Oakland Center
03:08PM 41.0611 -120.8106 345° North 401 461 38,000  Level Oakland Center
03:09PM 41.1689 -120.8497 345° North 401 461 38,000  Level Oakland Center
03:10PM 41.2767 -120.8864 346° North 402 463 38,000  Level Oakland Center
03:11PM 41.3850 -120.9256 345° North 402 463 38,000  Level Oakland Center
03:12PM 41.4919 -120.9639 345° North 400 460 38,000  Level Oakland Center
03:13PM 41.6008 -121.0039 345° North 405 466 38,000  Level Oakland Center
03:14PM 41.7086 -121.0411 346° North 402 463 38,000  Level Oakland Center
03:15PM 41.8158 -121.0789 345° North 401 461 38,000  Level Oakland Center
03:16PM 41.9425 -121.1247 345° North 395 455 38,000  Level Oakland Center
03:17PM 42.0517 -121.1631 345° North 403 464 38,000  Level Oakland Center
03:18PM 42.1553 -121.2011 345° North 398 458 38,000  Level Seattle Center
03:19PM 42.2606 -121.2392 345° North 396 456 38,000  Level Seattle Center
03:20PM 42.3650 -121.2783 345° North 394 453 38,000  Level Seattle Center
03:21PM 42.4694 -121.3153 345° North 391 450 38,000  Level Seattle Center
03:22PM 42.5936 -121.3603 345° North 389 448 38,000  Level Seattle Center
03:23PM 42.6981 -121.3997 344° North 391 450 38,000  Level Seattle Center
03:24PM 42.8039 -121.4408 344° North 395 455 38,000  Level Seattle Center
03:25PM 42.9086 -121.4786 345° North 393 452 38,000  Level Seattle Center
03:26PM 43.0144 -121.5147 346° North 392 451 38,000  Level Seattle Center
03:27PM 43.1200 -121.5572 344° North 394 453 38,000  Level Seattle Center
03:28PM 43.2258 -121.5981 344° North 395 455 38,000  Level Seattle Center
03:29PM 43.3308 -121.6381 345° North 393 452 38,000  Level Seattle Center
03:30PM 43.4344 -121.6778 344° North 389 448 38,000  Level Seattle Center
03:31PM 43.5386 -121.7167 345° North 389 448 38,000  Level Seattle Center
03:32PM 43.6636 -121.7636 345° North 389 448 38,000  Level Seattle Center
03:33PM 43.7678 -121.8047 344° North 391 450 38,000  Level Seattle Center
03:34PM 43.8722 -121.8439 345° North 393 452 38,000  Level Seattle Center
03:35PM 43.9722 -121.8836 344° North 393 452 38,000  Level Seattle Center
03:36PM 44.0769 -121.9211 346° North 391 450 38,000  Level Seattle Center
03:37PM 44.1811 -121.9631 344° North 392 451 38,000  Level Seattle Center
03:38PM 44.2875 -122.0039 345° North 395 455 38,000  Level Seattle Center
03:39PM 44.4114 -122.0525 344° North 388 447 38,000  Level Seattle Center
03:40PM 44.5156 -122.0936 344° North 390 449 38,000  Level Seattle Center
03:41PM 44.6189 -122.1342 344° North 390 449 38,000  Level Seattle Center
03:42PM 44.7236 -122.1747 345° North 390 449 38,000  Level Seattle Center
03:43PM 44.8272 -122.2175 344° North 390 449 38,000  Level Seattle Center
03:44PM 44.9314 -122.2600 344° North 391 450 38,000  Level Seattle Center
03:45PM 45.0356 -122.3033 344° North 393 452 38,000  Level Seattle Center
03:46PM 45.1375 -122.3428 345° North 387 445 38,000  Level Seattle Center
03:47PM 45.2383 -122.3842 344° North 382 440 38,000  Level Seattle Center
03:48PM 45.3394 -122.4256 344° North 380 437 38,000  Level Seattle Center
03:49PM 45.4603 -122.4750 344° North 379 436 38,000  Level Seattle Center
03:50PM 45.5594 -122.5158 344° North 375 432 38,000  Level Seattle Center
03:51PM 45.6583 -122.5567 344° North 374 430 38,000 -360 Level Seattle Center
03:52PM 45.7569 -122.5964 344° North 372 428 37,300 -1,080 Descending Seattle Center
03:53PM 45.8578 -122.6236 349° North 372 428 35,900 -2,220 Descending Seattle Center
03:54PM 45.9594 -122.6450 352° North 373 429 32,800 -3,120 Descending Seattle Center
03:55PM 46.0664 -122.6700 351° North 381 438 29,600 -2,640 Descending Seattle Center
03:56PM 46.1686 -122.6939 351° North 381 438 27,500 -2,100 Descending Seattle Center
03:58PM 46.2647 -122.7150 351° North 366 421 25,400 -2,340 Descending Seattle Center
03:59PM 46.3628 -122.8111 326° Northwest 356 410 22,800 -2,460 Descending Seattle Center
04:00PM 46.4553 -122.8403 348° North 345 397 20,500 -1,920 Descending Seattle Center
04:01PM 46.5464 -122.8239 North 338 389 18,900 -1,620 Descending Seattle Center
04:02PM 46.6322 -122.7839 18° North 329 379 17,300 -1,800 Descending Seattle Center
04:02PM 46.6850 -122.7594 18° North 321 369 16,000 -2,280 Descending Seattle Center
04:03PM 46.7256 -122.7444 14° North 321 369 15,000 -2,100 Descending Seattle Center
04:04PM 46.8092 -122.7061 17° North 314 361 13,000 -1,920 Descending Seattle Center
04:05PM 46.8692 -122.6358 39° Northeast 316 364 11,200 -1,620 Descending Seattle Center
04:06PM 46.9297 -122.5497 44° Northeast 307 353 9,800 -1,560 Descending Seattle Center
04:07PM 46.9994 -122.4597 41° Northeast 283 326 8,100 -1,500 Descending Seattle Center
04:08PM 47.0625 -122.4006 33° Northeast 259 298 6,800 -1,080 Descending Seattle Center
04:09PM 47.1214 -122.3522 29° Northeast 243 280 6,000 -840 Descending Seattle Center
04:10PM 47.1786 -122.3283 16° North 223 257 5,200 -780 Descending Seattle Center
04:11PM 47.2308 -122.3189 North 190 219 4,500 -960 Descending Seattle Center
04:12PM 47.2886 -122.3192 360° North 183 211 3,300 -1,020 Descending Seattle Center
04:13PM 47.3317 -122.3189 360° North 181 208 2,500 -900 Descending Seattle Center
04:14PM 47.3811 -122.3186 360° North 179 206 1,500 -900 Descending Seattle Center
04:15PM 47.4261 -122.3186 360° North 132 152 700 -600 Descending Seattle Center
04:16PM 47.4636 -122.3183 360° North 137 158 400 -300 Descending Seattle Center